KBCT/BCT METAR and TAF weather

Enter ICAO airport designator
Station Type Date Time Source
KBCT METAR 2023/11/30 00:53 UTC NOAA

KBCT 300053Z 05007KT 10SM CLR 19/13 A3012


Station Type Date Time Source
KBCT Decoded METAR 2023/11/30 00:53 UTC NOAA

Boca Raton, Boca Raton Airport, FL, United States (KBCT) 26-22-43N 080-06-28W
Nov 29, 2023 - 07:53 PM EST / 2023.11.30 0053 UTC
Wind: from the NE (050 degrees) at 8 MPH (7 KT):0
Visibility: 10 mile(s):0
Sky conditions: clear
Temperature: 66 F (19 C)
Dew Point: 55 F (13 C)
Relative Humidity: 68%
Pressure (altimeter): 30.12 in. Hg (1019 hPa)
ob: KBCT 300053Z 05007KT 10SM CLR 19/13 A3012
cycle: 1

Station Type Date Time Source
KBCT TAF 2020/02/03 18:20 UTC NOAA

TAF KBCT 031720Z 0318/0418 12005KT P6SM SKC
FM040000 VRB03KT P6SM SKC
FM041400 16011KT P6SM FEW030

Example: see airport list